createdAt,value
2022-12-20T00:01:51.667Z,82.72
2022-12-20T00:04:18.844Z,82.03
2022-12-20T00:06:45.977Z,81.82
2022-12-20T00:09:13.392Z,81.51
2022-12-20T00:11:41.764Z,82.11
2022-12-20T00:14:10.303Z,82.20
2022-12-20T00:16:38.519Z,81.70
2022-12-20T00:19:06.899Z,81.64
2022-12-20T00:21:35.590Z,81.75
2022-12-20T00:24:03.228Z,81.78
2022-12-20T00:26:32.722Z,82.01
2022-12-20T00:29:01.535Z,82.61
2022-12-20T00:31:30.409Z,82.64
2022-12-20T00:34:04.082Z,82.22
2022-12-20T00:36:32.846Z,81.50
2022-12-20T00:39:01.405Z,82.00
2022-12-20T00:41:31.649Z,82.15
2022-12-20T00:43:58.859Z,82.75
2022-12-20T00:46:26.731Z,82.95
2022-12-20T00:48:56.269Z,82.93
2022-12-20T00:51:26.920Z,83.21
2022-12-20T00:53:55.757Z,83.22
2022-12-20T00:56:23.454Z,83.30
2022-12-20T00:58:56.284Z,83.29
2022-12-20T01:01:27.345Z,83.21
2022-12-20T01:03:54.946Z,82.76
2022-12-20T01:06:24.564Z,82.71
2022-12-20T01:08:53.293Z,82.31
2022-12-20T01:11:26.390Z,82.04
2022-12-20T01:13:56.380Z,81.94
2022-12-20T01:16:35.233Z,81.85
2022-12-20T01:19:03.301Z,81.62
2022-12-20T01:21:31.401Z,81.70
2022-12-20T01:23:59.643Z,81.63
2022-12-20T01:26:29.528Z,81.69
2022-12-20T01:28:59.138Z,81.55
2022-12-20T01:31:28.101Z,81.39
2022-12-20T01:33:55.846Z,81.12
2022-12-20T01:36:26.951Z,80.97
2022-12-20T01:39:09.708Z,81.13
2022-12-20T01:41:39.938Z,80.50
2022-12-20T01:44:27.283Z,80.18
2022-12-20T01:47:00.605Z,79.87
2022-12-20T01:49:40.942Z,79.82
2022-12-20T01:52:31.532Z,79.80
2022-12-20T01:55:11.187Z,79.97
2022-12-20T01:57:47.492Z,79.64
2022-12-20T02:00:16.828Z,79.82
2022-12-20T02:02:47.822Z,79.98
2022-12-20T02:05:17.333Z,79.91
2022-12-20T02:07:49.161Z,79.63
2022-12-20T02:10:17.901Z,79.45
2022-12-20T02:12:47.834Z,79.66
2022-12-20T02:15:29.468Z,79.97
2022-12-20T02:18:05.441Z,80.08
2022-12-20T02:20:38.901Z,79.73
2022-12-20T02:23:17.924Z,79.93
2022-12-20T02:26:02.444Z,79.78
2022-12-20T02:28:51.939Z,80.08
2022-12-20T02:31:26.001Z,80.17
2022-12-20T02:33:56.335Z,79.87
2022-12-20T02:36:25.669Z,79.65
2022-12-20T02:38:55.275Z,79.42
2022-12-20T02:41:44.367Z,79.11
2022-12-20T02:44:37.097Z,78.62
2022-12-20T02:47:09.867Z,78.65
2022-12-20T02:49:41.586Z,78.09
2022-12-20T02:52:16.062Z,77.94
2022-12-20T02:54:45.531Z,77.47
2022-12-20T02:57:25.911Z,77.15
2022-12-20T03:00:09.988Z,76.68
2022-12-20T03:02:57.058Z,76.32
2022-12-20T03:05:27.117Z,76.27
2022-12-20T03:07:54.795Z,76.22
2022-12-20T03:10:32.158Z,75.90
2022-12-20T03:12:59.644Z,76.14
2022-12-20T03:15:27.051Z,75.66
2022-12-20T03:17:54.583Z,75.95
2022-12-20T03:20:23.016Z,76.12
2022-12-20T03:22:50.442Z,76.56
2022-12-20T03:25:17.876Z,76.62
2022-12-20T03:27:45.445Z,76.67
2022-12-20T03:30:13.318Z,77.58
2022-12-20T03:32:41.868Z,77.46
2022-12-20T03:35:11.554Z,78.44
2022-12-20T03:37:38.912Z,78.71
2022-12-20T03:40:08.379Z,78.96
2022-12-20T03:42:36.346Z,79.23
2022-12-20T03:45:06.271Z,78.82
2022-12-20T03:47:33.811Z,79.07
2022-12-20T03:50:01.285Z,79.27
2022-12-20T03:52:29.651Z,79.03
2022-12-20T03:54:57.172Z,79.00
2022-12-20T03:57:24.511Z,79.37
2022-12-20T03:59:52.086Z,78.78
2022-12-20T04:02:19.296Z,78.47
2022-12-20T04:04:48.104Z,78.10
2022-12-20T04:07:16.204Z,78.04
2022-12-20T04:09:44.414Z,77.96
2022-12-20T04:12:11.842Z,77.79
2022-12-20T04:14:39.356Z,77.48
2022-12-20T04:17:07.079Z,77.05
2022-12-20T04:19:34.307Z,76.71
2022-12-20T04:22:05.664Z,76.78
2022-12-20T04:24:33.796Z,76.34
2022-12-20T04:27:01.238Z,76.40
2022-12-20T04:29:28.693Z,76.48
2022-12-20T04:31:56.232Z,76.45
2022-12-20T04:34:30.847Z,76.41
2022-12-20T04:36:58.207Z,76.54
2022-12-20T04:39:25.752Z,76.35
2022-12-20T04:41:54.076Z,76.80
2022-12-20T04:44:21.619Z,76.67
2022-12-20T04:46:49.139Z,76.71
2022-12-20T04:49:16.841Z,76.69
2022-12-20T04:51:44.007Z,76.43
2022-12-20T04:54:12.513Z,76.43
2022-12-20T04:56:39.919Z,76.59
2022-12-20T04:59:07.392Z,77.52
2022-12-20T05:01:36.074Z,77.22
2022-12-20T05:04:04.620Z,77.42
2022-12-20T05:06:31.803Z,77.70
2022-12-20T05:09:00.357Z,78.38
2022-12-20T05:11:27.742Z,78.43
2022-12-20T05:13:55.203Z,78.52
2022-12-20T05:16:23.728Z,78.89
2022-12-20T05:18:53.095Z,79.16
2022-12-20T05:21:38.987Z,79.12
2022-12-20T05:24:25.319Z,79.29
2022-12-20T05:26:52.411Z,79.22
2022-12-20T05:29:19.932Z,79.61
2022-12-20T05:31:47.850Z,79.87
2022-12-20T05:34:15.416Z,80.11
2022-12-20T05:36:42.821Z,80.35
2022-12-20T05:39:16.431Z,80.35
2022-12-20T05:41:43.916Z,80.44
2022-12-20T05:44:11.332Z,80.46
2022-12-20T05:46:38.805Z,81.03
2022-12-20T05:49:12.895Z,80.83
2022-12-20T05:51:41.409Z,80.79
2022-12-20T05:54:08.949Z,80.72
2022-12-20T05:56:38.299Z,81.11
2022-12-20T05:59:06.757Z,81.31
2022-12-20T06:01:34.342Z,81.24
2022-12-20T06:04:04.342Z,80.74
2022-12-20T06:06:31.719Z,81.33
2022-12-20T06:08:59.171Z,81.39
2022-12-20T06:11:30.091Z,81.30
2022-12-20T06:13:59.592Z,81.33
2022-12-20T06:16:27.580Z,81.25
2022-12-20T06:18:55.257Z,81.75
2022-12-20T06:21:23.025Z,81.63
2022-12-20T06:23:50.510Z,82.13
2022-12-20T06:26:19.327Z,81.97
2022-12-20T06:28:46.628Z,81.77
2022-12-20T06:31:14.304Z,82.09
2022-12-20T06:33:42.918Z,82.29
2022-12-20T06:36:10.559Z,82.16
2022-12-20T06:38:38.195Z,82.49
2022-12-20T06:41:05.409Z,83.11
2022-12-20T06:43:32.781Z,83.32
2022-12-20T06:46:08.466Z,82.99
2022-12-20T06:48:35.898Z,83.61
2022-12-20T06:51:03.377Z,83.91
2022-12-20T06:53:30.924Z,83.22
2022-12-20T06:56:04.687Z,82.98
2022-12-20T06:58:33.886Z,83.25
2022-12-20T07:01:01.061Z,83.12
2022-12-20T07:03:28.793Z,82.97
2022-12-20T07:05:57.082Z,83.17
2022-12-20T07:08:25.068Z,83.33
2022-12-20T07:10:55.377Z,83.13
2022-12-20T07:13:23.022Z,82.97
2022-12-20T07:16:01.298Z,82.15
2022-12-20T07:18:29.561Z,81.61
2022-12-20T07:21:04.328Z,81.47
2022-12-20T07:23:32.045Z,80.92
2022-12-20T07:26:01.825Z,80.66
2022-12-20T07:28:30.293Z,81.05
2022-12-20T07:31:01.926Z,80.60
2022-12-20T07:33:29.702Z,80.45
2022-12-20T07:36:09.011Z,80.26
2022-12-20T07:38:36.512Z,80.26
2022-12-20T07:41:10.749Z,80.62
2022-12-20T07:43:38.441Z,80.68
2022-12-20T07:46:09.167Z,80.62
2022-12-20T07:48:36.467Z,80.70
2022-12-20T07:51:12.533Z,80.40
2022-12-20T07:53:45.959Z,79.99
2022-12-20T07:56:14.503Z,79.92
2022-12-20T07:58:42.937Z,79.84
2022-12-20T08:01:11.711Z,79.86
2022-12-20T08:03:52.464Z,79.45
2022-12-20T08:06:20.306Z,79.53
2022-12-20T08:08:51.565Z,79.69
2022-12-20T08:11:22.933Z,79.77
2022-12-20T08:13:57.554Z,79.58
2022-12-20T08:16:27.557Z,79.12
2022-12-20T08:18:54.905Z,79.33
2022-12-20T08:21:22.014Z,79.27
2022-12-20T08:23:49.327Z,79.63
2022-12-20T08:26:16.695Z,78.96
2022-12-20T08:28:43.786Z,78.76
2022-12-20T08:31:13.193Z,78.83
2022-12-20T08:33:41.557Z,77.85
2022-12-20T08:36:11.393Z,77.70
2022-12-20T08:38:40.959Z,77.16
2022-12-20T08:41:12.364Z,76.43
2022-12-20T08:43:41.468Z,75.50
2022-12-20T08:46:10.730Z,75.35
2022-12-20T08:48:38.855Z,75.45
2022-12-20T08:51:09.113Z,75.59
2022-12-20T08:53:36.668Z,75.65
2022-12-20T08:56:21.931Z,75.38
2022-12-20T08:58:49.316Z,75.50
2022-12-20T09:01:18.820Z,75.66
2022-12-20T09:03:52.258Z,75.76
2022-12-20T09:06:21.549Z,75.25
2022-12-20T09:08:49.440Z,75.03
2022-12-20T09:11:20.570Z,74.73
2022-12-20T09:13:50.532Z,75.03
2022-12-20T09:16:20.016Z,74.82
2022-12-20T09:19:00.712Z,74.58
2022-12-20T09:21:32.543Z,74.17
2022-12-20T09:24:00.010Z,73.68
2022-12-20T09:26:27.483Z,73.87
2022-12-20T09:28:55.326Z,73.48
2022-12-20T09:31:25.308Z,72.82
2022-12-20T09:34:01.443Z,72.08
2022-12-20T09:36:30.513Z,72.28
2022-12-20T09:38:59.137Z,72.41
2022-12-20T09:41:39.661Z,72.45
2022-12-20T09:44:20.725Z,73.11
2022-12-20T09:47:12.883Z,73.88
2022-12-20T09:49:44.274Z,74.24
2022-12-20T09:52:30.163Z,74.21
2022-12-20T09:55:16.306Z,74.79
2022-12-20T09:58:15.545Z,75.20
2022-12-20T10:00:54.284Z,75.53
2022-12-20T10:03:28.196Z,75.58
2022-12-20T10:06:00.703Z,75.32
2022-12-20T10:08:55.532Z,75.28
2022-12-20T10:11:39.771Z,74.58
2022-12-20T10:14:25.648Z,74.32
2022-12-20T10:17:05.476Z,73.41
2022-12-20T10:20:11.427Z,71.94
2022-12-20T10:22:49.513Z,70.35
2022-12-20T10:25:23.308Z,70.25
2022-12-20T10:27:55.456Z,70.01
2022-12-20T10:30:25.777Z,70.07
2022-12-20T10:32:56.273Z,68.56
2022-12-20T10:35:50.849Z,66.93
2022-12-20T10:38:21.059Z,65.47
2022-12-20T10:44:03.048Z,64.17
2022-12-20T10:46:40.512Z,64.08
2022-12-20T10:49:45.696Z,64.13
2022-12-20T10:52:14.459Z,65.47
2022-12-20T10:54:47.265Z,63.66
2022-12-20T10:57:17.088Z,62.04
2022-12-20T10:59:59.089Z,59.81
2022-12-20T11:02:39.546Z,58.81
2022-12-20T11:05:11.751Z,56.38
2022-12-20T11:11:14.643Z,61.48
2022-12-20T11:13:45.837Z,63.79
2022-12-20T11:16:36.488Z,65.69
2022-12-20T11:19:34.414Z,67.11
2022-12-20T11:22:39.678Z,68.25
2022-12-20T11:25:37.892Z,69.11
2022-12-20T11:28:15.952Z,69.36
2022-12-20T11:30:58.454Z,69.74
2022-12-20T11:33:46.948Z,70.89
2022-12-20T11:36:19.695Z,71.13
2022-12-20T11:39:08.935Z,71.62
2022-12-20T11:41:56.139Z,71.76
2022-12-20T11:44:55.547Z,71.94
2022-12-20T11:47:43.312Z,72.53
2022-12-20T11:50:32.402Z,72.46
2022-12-20T11:53:09.124Z,72.21
2022-12-20T11:55:45.469Z,72.69
2022-12-20T11:58:41.338Z,72.69
2022-12-20T12:01:14.394Z,73.03
2022-12-20T12:03:58.764Z,73.05
2022-12-20T12:06:41.095Z,74.13
2022-12-20T12:09:37.932Z,74.15
2022-12-20T12:12:17.578Z,74.63
2022-12-20T12:15:42.853Z,74.85
2022-12-20T12:18:24.762Z,75.50
2022-12-20T12:20:56.359Z,75.78
2022-12-20T12:23:49.520Z,76.19
2022-12-20T12:26:30.923Z,76.41
2022-12-20T12:29:12.571Z,76.30
2022-12-20T12:32:02.858Z,76.08
2022-12-20T12:35:05.887Z,76.07
2022-12-20T12:37:55.287Z,76.86
2022-12-20T12:41:03.975Z,77.42
2022-12-20T12:43:48.458Z,78.29
2022-12-20T12:46:31.387Z,78.15
2022-12-20T12:49:15.902Z,78.67
2022-12-20T12:51:50.714Z,78.64
2022-12-20T12:54:35.173Z,78.35
2022-12-20T12:57:07.206Z,78.33
2022-12-20T12:59:34.546Z,78.27
2022-12-20T13:02:04.707Z,78.86
2022-12-20T13:04:57.897Z,79.67
2022-12-20T13:07:37.429Z,79.24
2022-12-20T13:10:18.624Z,78.65
2022-12-20T13:12:59.013Z,78.20
2022-12-20T13:15:26.425Z,78.64
2022-12-20T13:18:01.569Z,79.41
2022-12-20T13:20:35.094Z,78.85
2022-12-20T13:23:11.992Z,78.86
2022-12-20T13:25:47.265Z,78.26
2022-12-20T13:28:25.769Z,77.91
2022-12-20T13:31:02.845Z,77.78
2022-12-20T13:33:48.768Z,78.24
2022-12-20T13:36:36.511Z,77.64
2022-12-20T13:39:23.904Z,77.84
2022-12-20T13:42:18.305Z,77.27
2022-12-20T13:44:54.724Z,77.37
2022-12-20T13:47:37.875Z,77.23
2022-12-20T13:50:40.825Z,77.22
2022-12-20T13:53:20.286Z,77.06
2022-12-20T13:55:50.606Z,76.77
2022-12-20T13:58:37.164Z,76.77
2022-12-20T14:01:08.028Z,77.38
2022-12-20T14:03:41.909Z,77.96
2022-12-20T14:06:19.203Z,78.94
2022-12-20T14:08:52.842Z,79.23
2022-12-20T14:11:29.560Z,79.86
2022-12-20T14:14:03.670Z,80.22
2022-12-20T14:16:34.318Z,80.29
2022-12-20T14:19:05.802Z,80.55
2022-12-20T14:21:39.953Z,80.54
2022-12-20T14:24:22.252Z,80.79
2022-12-20T14:26:53.063Z,81.13
2022-12-20T14:29:30.757Z,81.38
2022-12-20T14:31:58.968Z,81.54
2022-12-20T14:34:36.571Z,81.99
2022-12-20T14:37:32.216Z,82.16
2022-12-20T14:40:18.110Z,82.54
2022-12-20T14:42:46.035Z,83.24
2022-12-20T14:45:13.700Z,82.98
2022-12-20T14:47:59.888Z,83.24
2022-12-20T14:50:36.471Z,83.68
2022-12-20T14:53:04.903Z,84.31
2022-12-20T14:55:36.813Z,85.13
2022-12-20T14:58:23.630Z,85.48
2022-12-20T15:01:22.180Z,85.85
2022-12-20T15:03:59.289Z,85.66
2022-12-20T15:06:41.672Z,86.18
2022-12-20T15:09:09.418Z,86.31
2022-12-20T15:11:38.860Z,86.26
2022-12-20T15:14:34.283Z,86.16
2022-12-20T15:17:01.818Z,85.78
2022-12-20T15:19:31.731Z,86.20
2022-12-20T15:21:59.335Z,86.26
2022-12-20T15:24:29.409Z,86.88
2022-12-20T15:26:57.436Z,86.54
2022-12-20T15:29:28.959Z,86.85
2022-12-20T15:32:30.103Z,86.37
2022-12-20T15:34:58.739Z,86.71
2022-12-20T15:37:25.987Z,86.58
2022-12-20T15:39:53.484Z,86.57
2022-12-20T15:42:23.983Z,86.52
2022-12-20T15:44:51.580Z,86.12
2022-12-20T15:47:19.088Z,86.01
2022-12-20T15:49:50.501Z,86.36
2022-12-20T15:52:24.019Z,86.41
2022-12-20T15:54:53.595Z,86.25
2022-12-20T15:57:21.800Z,86.93
2022-12-20T16:00:00.464Z,87.30
2022-12-20T16:02:31.305Z,86.86
2022-12-20T16:05:00.125Z,87.19
2022-12-20T16:07:28.799Z,87.44
2022-12-20T16:09:56.236Z,87.30
2022-12-20T16:12:27.824Z,86.89
2022-12-20T16:14:55.505Z,86.88
2022-12-20T16:17:22.776Z,86.68
2022-12-20T16:19:52.260Z,86.61
2022-12-20T16:22:25.203Z,86.06
2022-12-20T16:24:52.751Z,85.74
2022-12-20T16:27:20.734Z,85.43
2022-12-20T16:29:48.190Z,85.85
2022-12-20T16:32:20.299Z,86.48
2022-12-20T16:34:49.747Z,86.12
2022-12-20T16:37:23.558Z,86.62
2022-12-20T16:39:52.792Z,86.72
2022-12-20T16:42:23.548Z,86.76
2022-12-20T16:44:54.713Z,86.71
2022-12-20T16:47:28.601Z,87.02
2022-12-20T16:49:56.036Z,87.50
2022-12-20T16:52:29.816Z,87.41
2022-12-20T16:54:58.044Z,87.57
2022-12-20T16:57:25.536Z,87.42
2022-12-20T16:59:52.961Z,87.42
2022-12-20T17:02:26.447Z,87.80
2022-12-20T17:04:54.087Z,88.06
2022-12-20T17:07:21.888Z,87.57
2022-12-20T17:09:49.547Z,87.59
2022-12-20T17:12:23.609Z,87.66
2022-12-20T17:14:53.156Z,87.81
2022-12-20T17:17:20.749Z,87.70
2022-12-20T17:19:48.135Z,87.69
2022-12-20T17:22:23.364Z,87.73
2022-12-20T17:24:50.606Z,87.41
2022-12-20T17:27:19.254Z,87.38
2022-12-20T17:29:47.553Z,87.36
2022-12-20T17:32:23.746Z,87.37
2022-12-20T17:34:51.820Z,87.43
2022-12-20T17:37:21.465Z,87.46
2022-12-20T17:39:49.269Z,87.13
2022-12-20T17:42:17.780Z,87.37
2022-12-20T17:44:46.583Z,87.14
2022-12-20T17:47:14.222Z,87.09
2022-12-20T17:49:41.561Z,87.19
2022-12-20T17:52:17.708Z,87.69
2022-12-20T17:54:47.264Z,87.78
2022-12-20T17:57:16.603Z,87.99
2022-12-20T17:59:44.403Z,88.10
2022-12-20T18:02:30.412Z,88.13
2022-12-20T18:05:01.540Z,88.03
2022-12-20T18:07:29.082Z,88.38
2022-12-20T18:09:56.461Z,88.48
2022-12-20T18:12:24.005Z,88.71
2022-12-20T18:14:51.727Z,88.70
2022-12-20T18:17:19.023Z,88.01
2022-12-20T18:19:46.389Z,88.11
2022-12-20T18:22:15.034Z,88.30
2022-12-20T18:24:42.224Z,88.13
2022-12-20T18:27:10.294Z,88.06
2022-12-20T18:29:37.908Z,88.31
2022-12-20T18:32:06.062Z,87.59
2022-12-20T18:34:34.167Z,87.30
2022-12-20T18:37:05.827Z,86.96
2022-12-20T18:39:34.508Z,87.07
2022-12-20T18:42:02.893Z,87.54
2022-12-20T18:44:36.036Z,87.17
2022-12-20T18:47:04.369Z,87.23
2022-12-20T18:49:33.314Z,87.15
2022-12-20T18:52:01.046Z,87.28
2022-12-20T18:54:28.600Z,87.11
2022-12-20T18:56:56.451Z,87.22
2022-12-20T18:59:23.749Z,87.23
2022-12-20T19:01:51.017Z,87.56
2022-12-20T19:04:24.250Z,87.80
2022-12-20T19:06:58.457Z,87.77
2022-12-20T19:09:26.749Z,87.81
2022-12-20T19:11:57.640Z,87.88
2022-12-20T19:14:26.637Z,88.07
2022-12-20T19:16:55.833Z,87.74
2022-12-20T19:19:24.268Z,87.21
2022-12-20T19:21:52.192Z,87.14
2022-12-20T19:24:20.659Z,86.53
2022-12-20T19:26:48.308Z,86.86
2022-12-20T19:29:15.902Z,87.23
2022-12-20T19:31:44.160Z,87.30
2022-12-20T19:34:13.575Z,86.90
2022-12-20T19:36:48.639Z,86.94
2022-12-20T19:39:20.847Z,87.10
2022-12-20T19:42:14.000Z,87.32
2022-12-20T19:44:36.827Z,87.83
2022-12-20T19:47:07.563Z,88.20
2022-12-20T19:49:36.497Z,88.18
2022-12-20T19:52:05.458Z,88.37
2022-12-20T19:54:34.438Z,87.94
2022-12-20T19:57:02.060Z,88.29
2022-12-20T19:59:31.260Z,88.12
2022-12-20T20:01:58.748Z,88.13
2022-12-20T20:04:26.255Z,87.68
2022-12-20T20:06:56.674Z,88.14
2022-12-20T20:09:24.288Z,88.13
2022-12-20T20:11:54.618Z,87.96
2022-12-20T20:14:23.013Z,88.08
2022-12-20T20:16:51.006Z,87.78
2022-12-20T20:19:21.067Z,87.27
2022-12-20T20:21:49.556Z,86.77
2022-12-20T20:24:19.321Z,86.92
2022-12-20T20:26:47.590Z,87.41
2022-12-20T20:29:16.089Z,87.39
2022-12-20T20:31:45.638Z,87.57
2022-12-20T20:34:13.486Z,87.43
2022-12-20T20:36:49.189Z,87.93
2022-12-20T20:39:16.709Z,87.82
2022-12-20T20:41:44.387Z,87.43
2022-12-20T20:44:12.678Z,86.92
2022-12-20T20:46:42.176Z,86.53
2022-12-20T20:49:10.913Z,86.13
2022-12-20T20:51:38.600Z,85.99
2022-12-20T20:54:07.300Z,86.19
2022-12-20T20:56:34.939Z,86.13
2022-12-20T20:59:07.047Z,86.59
2022-12-20T21:01:36.615Z,86.28
2022-12-20T21:04:05.141Z,86.52
2022-12-20T21:06:39.981Z,86.52
2022-12-20T21:09:09.145Z,86.60
2022-12-20T21:11:37.330Z,86.61
2022-12-20T21:14:05.479Z,86.60
2022-12-20T21:16:33.120Z,86.33
2022-12-20T21:19:00.645Z,86.43
2022-12-20T21:21:28.592Z,86.44
2022-12-20T21:23:56.488Z,86.80
2022-12-20T21:26:27.850Z,86.80
2022-12-20T21:28:59.663Z,87.25
2022-12-20T21:31:27.745Z,87.61
2022-12-20T21:33:57.749Z,87.03
2022-12-20T21:36:25.699Z,87.07
2022-12-20T21:38:55.890Z,86.77
2022-12-20T21:41:27.053Z,86.87
2022-12-20T21:44:01.025Z,87.38
2022-12-20T21:46:32.142Z,87.11
2022-12-20T21:49:05.521Z,86.75
2022-12-20T21:51:33.285Z,86.74
2022-12-20T21:54:03.731Z,86.59
2022-12-20T21:56:34.272Z,86.77
2022-12-20T21:59:04.320Z,87.05
2022-12-20T22:01:32.375Z,87.00
2022-12-20T22:04:06.836Z,86.96
2022-12-20T22:06:35.606Z,87.30
2022-12-20T22:09:07.699Z,86.90
2022-12-20T22:11:35.519Z,86.75
2022-12-20T22:14:12.097Z,86.99
2022-12-20T22:16:39.467Z,87.50
2022-12-20T22:19:06.538Z,87.43
2022-12-20T22:21:36.340Z,87.59
2022-12-20T22:24:04.489Z,88.08
2022-12-20T22:26:33.850Z,88.40
2022-12-20T22:29:05.091Z,88.73
2022-12-20T22:31:32.928Z,88.46
2022-12-20T22:34:01.015Z,88.39
2022-12-20T22:36:28.621Z,88.24
2022-12-20T22:38:57.110Z,87.89
2022-12-20T22:41:29.150Z,88.09
2022-12-20T22:43:59.057Z,88.41
2022-12-20T22:49:18.148Z,89.01
2022-12-20T22:51:55.137Z,89.36
2022-12-20T22:54:30.089Z,89.38
2022-12-20T22:56:57.626Z,89.38
2022-12-20T22:59:25.085Z,89.18
2022-12-20T23:01:52.204Z,89.45
2022-12-20T23:04:21.561Z,89.73
2022-12-20T23:06:48.989Z,89.74
2022-12-20T23:09:17.385Z,89.68
2022-12-20T23:12:03.479Z,89.58
2022-12-20T23:14:49.234Z,89.46
2022-12-20T23:17:16.968Z,89.22
2022-12-20T23:20:10.937Z,89.67
2022-12-20T23:22:45.379Z,90.11
2022-12-20T23:25:15.867Z,90.56
2022-12-20T23:27:45.325Z,90.84
2022-12-20T23:30:15.072Z,91.13
2022-12-20T23:32:44.970Z,91.32
2022-12-20T23:35:14.186Z,91.19
2022-12-20T23:37:42.088Z,91.47
2022-12-20T23:40:10.872Z,91.53
2022-12-20T23:42:38.829Z,91.45
2022-12-20T23:45:06.693Z,91.50
2022-12-20T23:47:33.772Z,90.93
2022-12-20T23:50:01.254Z,90.51
2022-12-20T23:52:28.397Z,90.43
2022-12-20T23:54:57.739Z,90.31
2022-12-20T23:57:25.190Z,90.36
2022-12-20T23:59:52.154Z,90.45
